Airfield :
LOGIN :

Register | Disclaimer

   EN    FR    IT 

 










Legend :    VFR   Marginal VFR   IFR   Intensive IFR   Very Intensive IFR
Visi :
Ceiling :
>= 8 km
>= 3000ft
5 to 8 km
1000 to 3000 ft
1500m to 5 km
500 to 1000 ft
800 to 1500m
200 to 500 ft
< 800m
< 200 ft
Symbols :   Thunderstorms  Fog  Heavy snow  Heavy precipitations  Wind > 20 kt
SIGMETs :     Misc.  Thunderstorms  Icing  Turbulence  Mountain Waves  Volcanic Ashes






- Airport Elevation : 287 ft


LFRL - Lanveoc Poulmic

CURRENT METAR :
  • 270830Z AUTO 32015KT 9999 OVC018 09/06 Q1002 BECMG 33015G25KT

EXPIRED METARs :
  • 270800Z AUTO 32019G29KT 9999 OVC017 08/06 Q1001 BECMG 26025G40KT
  • 270730Z AUTO 30021G31KT 9999 BKN013 OVC019 09/07 Q0999 BECMG BKN015
  • 270700Z AUTO 29027G39KT 9999 BKN013 OVC019 10/08 Q0998 BECMG BKN015
  • 270630Z AUTO 28028G39KT 9999 BKN010 OVC014 11/10 Q0997 BECMG BKN015
  • 270600Z AUTO 27026G38KT 9999 BKN008 OVC012 11/10 Q0997 BECMG BKN015

TAF TAF LFRL
Valid from the 27 at 06:00 until the 28 at 06:00 UTC


270500Z 2706/2806 26025G40KT 5000 RADZ OVC006
BECMG 2706/2708 9999 NSW BKN015
BECMG 2710/2712 33015G25KT SCT020
BECMG 2722/2724 16010KT OVC012
TEMPO 2800/2806 3000 RADZ BR OVC005



MET'MAP, your aeronautical weather chart ! - Copyright ORBIFLY December 2007 - Disclaimer

ORBIFLY MET'MAP TEAM :

Programming & Development : Alexandra Zaïnal
Concept & original design : Baudouin d'Aumeries
Assistance for programming : Marc-Olivier Méhu
Technical & hardware support : Manuel Goepfert

Contact : metmap@orbifly.com




SOURCES & CREDITS :

   NOAA